Huvudsida
METAR-TAF:

METAR-TAF

Flygplatser :

Arvidsjaur flygplats

Arvidsjaur, Sverige

latitud: 65-35-25N, longitud: 019-16-55E, höjd: 379 m

Aktuellt väderrapport

Denna rapport gjordes för 12 minuter sedan, klockan 07:50 UTC
Vind 5 kt från väst/sydväst, varierande mellan syd/sydväst och väst/nordväst
Temperatur 5°C
Fuktighet 75%
Tryck 1006 hPa
Sikt 10 km eller mer
Inga moln under 1 500 m eller inga cumulonimbus

METAR: ESNX 180750Z 25005KT 210V290 CAVOK 05/01 Q1006

Tid: 10:02 (08:02 UTC)

Väderprognos

Denna rapport gjordes för 2 timmar och 32 minuter sedan, klockan 05:30 UTC
Prognos gäller från 18 kl. 06 UTC till 18 kl. 15 UTC
Vind 8 kt från väst
Sikt 10 km eller mer
Inga moln under 1 500 m eller inga cumulonimbus

TAF: ESNX 180530Z 1806/1815 26008KT CAVOK

Aktuella väderrapporter och prognoser från 4000 flygplatser (METAR- och TAF-rapporter).

De tillgängliga stationerna syns som gula och röda prickar på kartan.

För musen över prickarna för att se namnen på stationerna.

Klicka sedan för att få väderrapporter och prognoser.

För att ändra kartan: Klicka på de gröna knapparna med ett svart kors på för att zooma in; den gröna knappen med ett streck på för att zooma ut; eller på de gröna pilarna för angränsande kartor.


METAR-TAF: